createdAt,value
2018-06-30T00:00:04.733Z,19.16
2018-06-30T00:01:04.977Z,19.26
2018-06-30T00:02:05.220Z,19.26
2018-06-30T00:03:05.467Z,19.21
2018-06-30T00:04:05.710Z,19.23
2018-06-30T00:05:05.954Z,19.26
2018-06-30T00:06:06.197Z,19.21
2018-06-30T00:07:06.441Z,19.21
2018-06-30T00:08:06.689Z,19.31
2018-06-30T00:09:06.929Z,19.40
2018-06-30T00:10:07.173Z,19.36
2018-06-30T00:11:07.417Z,19.44
2018-06-30T00:12:07.661Z,19.44
2018-06-30T00:13:07.905Z,19.43
2018-06-30T00:14:08.150Z,19.41
2018-06-30T00:15:08.391Z,19.39
2018-06-30T00:16:08.635Z,19.46
2018-06-30T00:17:08.881Z,19.40
2018-06-30T00:18:09.126Z,19.39
2018-06-30T00:19:09.370Z,19.44
2018-06-30T00:20:09.613Z,19.44
2018-06-30T00:21:09.858Z,19.40
2018-06-30T00:22:10.104Z,19.31
2018-06-30T00:23:10.350Z,19.29
2018-06-30T00:24:10.591Z,19.26
2018-06-30T00:25:10.838Z,19.26
2018-06-30T00:26:11.080Z,19.21
2018-06-30T00:27:11.325Z,19.06
2018-06-30T00:28:11.569Z,18.99
2018-06-30T00:29:11.812Z,18.88
2018-06-30T00:30:12.057Z,18.90
2018-06-30T00:31:12.301Z,18.80
2018-06-30T00:32:12.546Z,18.72
2018-06-30T00:33:12.793Z,18.78
2018-06-30T00:34:13.034Z,18.80
2018-06-30T00:35:13.281Z,18.82
2018-06-30T00:36:13.523Z,18.78
2018-06-30T00:37:13.767Z,18.76
2018-06-30T00:38:14.019Z,18.80
2018-06-30T00:39:14.257Z,18.78
2018-06-30T00:40:14.501Z,18.76
2018-06-30T00:41:14.745Z,18.76
2018-06-30T00:42:14.990Z,18.75
2018-06-30T00:43:15.234Z,18.65
2018-06-30T00:44:15.478Z,18.69
2018-06-30T00:45:15.722Z,18.62
2018-06-30T00:46:15.966Z,18.63
2018-06-30T00:47:16.210Z,18.67
2018-06-30T00:48:16.455Z,18.72
2018-06-30T00:49:16.699Z,18.65
2018-06-30T00:50:16.942Z,18.65
2018-06-30T00:51:17.189Z,18.63
2018-06-30T00:52:17.471Z,18.62
2018-06-30T00:53:17.676Z,18.52
2018-06-30T00:54:17.920Z,18.52
2018-06-30T00:55:18.163Z,18.54
2018-06-30T00:56:18.408Z,18.63
2018-06-30T00:57:18.652Z,18.52
2018-06-30T00:58:18.895Z,18.57
2018-06-30T00:59:19.143Z,18.62
2018-06-30T01:00:19.383Z,18.52
2018-06-30T01:01:19.628Z,18.55
2018-06-30T01:02:19.873Z,18.51
2018-06-30T01:03:20.114Z,18.50
2018-06-30T01:04:20.356Z,18.50
2018-06-30T01:05:20.601Z,18.36
2018-06-30T01:06:20.845Z,18.35
2018-06-30T01:07:21.094Z,18.35
2018-06-30T01:08:21.335Z,18.23
2018-06-30T01:09:21.581Z,18.23
2018-06-30T01:10:21.822Z,18.14
2018-06-30T01:11:22.064Z,18.14
2018-06-30T01:12:22.307Z,18.10
2018-06-30T01:13:22.553Z,18.10
2018-06-30T01:14:22.794Z,18.17
2018-06-30T01:15:23.042Z,18.18
2018-06-30T01:16:23.283Z,18.12
2018-06-30T01:17:23.527Z,18.14
2018-06-30T01:18:23.770Z,18.14
2018-06-30T01:19:24.012Z,18.20
2018-06-30T01:20:24.257Z,18.25
2018-06-30T01:21:24.500Z,18.23
2018-06-30T01:22:24.744Z,18.08
2018-06-30T01:23:24.987Z,18.08
2018-06-30T01:24:25.228Z,18.05
2018-06-30T01:25:25.472Z,18.07
2018-06-30T01:26:25.716Z,17.99
2018-06-30T01:27:25.963Z,18.05
2018-06-30T01:28:26.205Z,17.96
2018-06-30T01:29:26.447Z,17.95
2018-06-30T01:30:26.689Z,17.81
2018-06-30T01:31:26.933Z,17.96
2018-06-30T01:32:27.175Z,17.77
2018-06-30T01:33:27.421Z,17.71
2018-06-30T01:34:27.664Z,17.86
2018-06-30T01:35:27.907Z,17.90
2018-06-30T01:36:28.149Z,17.92
2018-06-30T01:37:28.393Z,17.78
2018-06-30T01:38:28.637Z,17.74
2018-06-30T01:39:28.880Z,17.79
2018-06-30T01:40:29.125Z,17.77
2018-06-30T01:41:29.367Z,17.87
2018-06-30T01:42:29.613Z,17.77
2018-06-30T01:43:29.853Z,17.79
2018-06-30T01:44:30.097Z,17.74
2018-06-30T01:45:30.338Z,17.68
2018-06-30T01:46:30.583Z,17.68
2018-06-30T01:47:30.826Z,17.59
2018-06-30T01:48:31.068Z,17.54
2018-06-30T01:49:31.311Z,17.56
2018-06-30T01:50:31.556Z,17.48
2018-06-30T01:51:31.801Z,17.44
2018-06-30T01:52:32.043Z,17.43
2018-06-30T01:53:32.286Z,17.43
2018-06-30T01:54:32.531Z,17.48
2018-06-30T01:55:32.777Z,17.41
2018-06-30T01:56:33.018Z,17.40
2018-06-30T01:57:33.264Z,17.36
2018-06-30T01:58:33.508Z,17.33
2018-06-30T01:59:33.752Z,17.22
2018-06-30T02:00:33.998Z,17.26
2018-06-30T02:01:34.243Z,17.25
2018-06-30T02:02:34.487Z,17.26
2018-06-30T02:03:34.730Z,17.28
2018-06-30T02:04:34.976Z,17.18
2018-06-30T02:05:35.222Z,17.19
2018-06-30T02:06:35.464Z,17.22
2018-06-30T02:07:35.709Z,17.21
2018-06-30T02:08:35.956Z,17.12
2018-06-30T02:09:36.197Z,17.06
2018-06-30T02:10:36.440Z,17.04
2018-06-30T02:11:36.687Z,17.06
2018-06-30T02:12:36.932Z,17.01
2018-06-30T02:13:37.177Z,17.00
2018-06-30T02:14:37.420Z,16.91
2018-06-30T02:15:37.664Z,16.89
2018-06-30T02:16:37.908Z,16.93
2018-06-30T02:17:38.152Z,16.85
2018-06-30T02:18:38.395Z,16.82
2018-06-30T02:19:38.643Z,16.83
2018-06-30T02:20:38.885Z,16.71
2018-06-30T02:21:39.163Z,16.75
2018-06-30T02:22:39.374Z,16.70
2018-06-30T02:23:39.617Z,16.70
2018-06-30T02:24:39.865Z,16.76
2018-06-30T02:25:40.112Z,16.61
2018-06-30T02:26:40.358Z,16.64
2018-06-30T02:27:40.602Z,16.63
2018-06-30T02:28:40.849Z,16.56
2018-06-30T02:29:41.093Z,16.58
2018-06-30T02:30:41.337Z,16.50
2018-06-30T02:31:41.581Z,16.45
2018-06-30T02:32:41.831Z,16.45
2018-06-30T02:33:42.070Z,16.34
2018-06-30T02:34:42.316Z,16.42
2018-06-30T02:35:42.562Z,16.46
2018-06-30T02:36:42.803Z,16.39
2018-06-30T02:37:43.046Z,16.34
2018-06-30T02:38:43.289Z,16.34
2018-06-30T02:39:43.534Z,16.35
2018-06-30T02:40:43.777Z,16.33
2018-06-30T02:41:44.022Z,16.23
2018-06-30T02:42:44.262Z,16.28
2018-06-30T02:43:44.508Z,16.30
2018-06-30T02:44:44.753Z,16.25
2018-06-30T02:45:44.998Z,16.23
2018-06-30T02:46:45.241Z,16.15
2018-06-30T02:47:45.484Z,16.24
2018-06-30T02:48:45.726Z,16.14
2018-06-30T02:49:45.971Z,16.15
2018-06-30T02:50:46.213Z,16.23
2018-06-30T02:51:46.456Z,16.12
2018-06-30T02:52:46.701Z,16.07
2018-06-30T02:53:46.942Z,16.12
2018-06-30T02:54:47.196Z,16.07
2018-06-30T02:55:47.440Z,16.15
2018-06-30T02:56:47.683Z,16.07
2018-06-30T02:57:47.928Z,16.01
2018-06-30T02:58:48.170Z,15.94
2018-06-30T02:59:48.414Z,15.94
2018-06-30T03:00:48.661Z,15.89
2018-06-30T03:01:48.908Z,16.04
2018-06-30T03:02:49.153Z,16.08
2018-06-30T03:03:49.400Z,15.94
2018-06-30T03:04:49.647Z,16.02
2018-06-30T03:05:49.891Z,15.94
2018-06-30T03:06:50.139Z,15.96
2018-06-30T03:07:50.384Z,15.87
2018-06-30T03:08:50.629Z,15.86
2018-06-30T03:09:50.876Z,15.84
2018-06-30T03:10:51.124Z,15.80
2018-06-30T03:11:51.368Z,15.78
2018-06-30T03:12:51.613Z,15.75
2018-06-30T03:13:51.859Z,15.68
2018-06-30T03:14:52.105Z,15.59
2018-06-30T03:15:52.351Z,15.71
2018-06-30T03:16:52.598Z,15.72
2018-06-30T03:17:52.844Z,15.62
2018-06-30T03:18:53.091Z,15.59
2018-06-30T03:19:53.336Z,15.50
2018-06-30T03:20:53.586Z,15.50
2018-06-30T03:21:53.840Z,15.51
2018-06-30T03:22:54.074Z,15.51
2018-06-30T03:23:54.320Z,15.54
2018-06-30T03:24:54.565Z,15.53
2018-06-30T03:25:54.813Z,15.53
2018-06-30T03:26:55.058Z,15.43
2018-06-30T03:27:55.304Z,15.39
2018-06-30T03:28:55.551Z,15.41
2018-06-30T03:29:55.796Z,15.44
2018-06-30T03:30:56.044Z,15.43
2018-06-30T03:31:56.288Z,15.44
2018-06-30T03:32:56.537Z,15.34
2018-06-30T03:33:56.780Z,15.27
2018-06-30T03:34:57.029Z,15.32
2018-06-30T03:35:57.285Z,15.41
2018-06-30T03:36:57.518Z,15.36
2018-06-30T03:37:57.765Z,15.44
2018-06-30T03:38:58.010Z,15.51
2018-06-30T03:39:58.304Z,15.50
2018-06-30T03:40:58.501Z,15.56
2018-06-30T03:41:58.744Z,15.50
2018-06-30T03:43:00.410Z,15.50
2018-06-30T03:43:59.368Z,15.56
2018-06-30T03:44:59.613Z,15.53
2018-06-30T03:45:59.858Z,15.53
2018-06-30T03:47:00.106Z,15.57
2018-06-30T03:48:00.351Z,15.53
2018-06-30T03:49:00.597Z,15.50
2018-06-30T03:50:00.843Z,15.54
2018-06-30T03:51:01.088Z,15.57
2018-06-30T03:52:01.336Z,15.69
2018-06-30T03:53:01.580Z,15.65
2018-06-30T03:54:01.838Z,15.76
2018-06-30T03:55:02.073Z,15.72
2018-06-30T03:56:02.320Z,15.72
2018-06-30T03:57:02.564Z,15.75
2018-06-30T03:58:02.811Z,15.72
2018-06-30T03:59:03.057Z,15.80
2018-06-30T04:00:03.302Z,15.83
2018-06-30T04:01:03.551Z,15.89
2018-06-30T04:02:03.793Z,15.84
2018-06-30T04:03:04.039Z,15.86
2018-06-30T04:04:04.283Z,15.93
2018-06-30T04:05:04.527Z,15.94
2018-06-30T04:06:04.772Z,15.93
2018-06-30T04:07:05.019Z,15.90
2018-06-30T04:08:05.263Z,15.93
2018-06-30T04:09:05.509Z,15.96
2018-06-30T04:10:05.755Z,15.96
2018-06-30T04:11:06.004Z,16.02
2018-06-30T04:12:06.247Z,15.94
2018-06-30T04:13:06.493Z,15.93
2018-06-30T04:14:06.740Z,16.08
2018-06-30T04:15:06.986Z,16.08
2018-06-30T04:16:07.234Z,16.04
2018-06-30T04:17:07.481Z,16.08
2018-06-30T04:18:07.728Z,16.11
2018-06-30T04:19:07.971Z,16.12
2018-06-30T04:20:08.214Z,16.12
2018-06-30T04:21:08.462Z,16.17
2018-06-30T04:22:08.746Z,16.24
2018-06-30T04:23:08.955Z,16.27
2018-06-30T04:24:09.203Z,16.15
2018-06-30T04:25:09.447Z,16.21
2018-06-30T04:26:09.690Z,16.24
2018-06-30T04:27:09.941Z,16.28
2018-06-30T04:28:10.185Z,16.25
2018-06-30T04:29:10.430Z,16.34
2018-06-30T04:30:10.675Z,16.28
2018-06-30T04:31:10.921Z,16.20
2018-06-30T04:32:11.166Z,16.25
2018-06-30T04:33:11.410Z,16.23
2018-06-30T04:34:11.655Z,16.21
2018-06-30T04:35:11.902Z,16.27
2018-06-30T04:36:12.147Z,16.24
2018-06-30T04:37:12.392Z,16.31
2018-06-30T04:38:12.638Z,16.30
2018-06-30T04:39:12.884Z,16.24
2018-06-30T04:40:13.128Z,16.31
2018-06-30T04:41:13.373Z,16.30
2018-06-30T04:42:13.617Z,16.23
2018-06-30T04:43:13.860Z,16.34
2018-06-30T04:44:14.107Z,16.33
2018-06-30T04:45:14.396Z,16.21
2018-06-30T04:46:14.602Z,16.35
2018-06-30T04:47:14.841Z,16.31
2018-06-30T04:48:15.087Z,16.38
2018-06-30T04:49:15.331Z,16.34
2018-06-30T04:50:15.576Z,16.31
2018-06-30T04:51:15.821Z,16.41
2018-06-30T04:52:16.067Z,16.48
2018-06-30T04:53:16.310Z,16.39
2018-06-30T04:54:16.553Z,16.49
2018-06-30T04:55:16.797Z,16.45
2018-06-30T04:56:17.303Z,16.39
2018-06-30T04:57:17.576Z,16.43
2018-06-30T04:58:17.803Z,16.48
2018-06-30T04:59:18.470Z,16.42
2018-06-30T05:01:20.952Z,16.52
2018-06-30T05:02:19.797Z,16.49
2018-06-30T05:03:19.934Z,16.60
2018-06-30T05:04:20.580Z,16.50
2018-06-30T05:05:19.895Z,16.50
2018-06-30T05:06:20.140Z,16.63
2018-06-30T05:07:20.378Z,16.63
2018-06-30T05:08:20.627Z,16.63
2018-06-30T05:09:20.861Z,16.63
2018-06-30T05:10:21.108Z,16.67
2018-06-30T05:11:21.350Z,16.71
2018-06-30T05:12:21.594Z,16.61
2018-06-30T05:13:21.837Z,16.61
2018-06-30T05:14:22.083Z,16.53
2018-06-30T05:15:22.324Z,16.61
2018-06-30T05:16:22.566Z,16.71
2018-06-30T05:17:22.815Z,16.82
2018-06-30T05:18:23.052Z,16.85
2018-06-30T05:19:23.291Z,16.86
2018-06-30T05:20:23.533Z,16.88
2018-06-30T05:21:23.776Z,16.86
2018-06-30T05:22:24.019Z,16.93
2018-06-30T05:23:24.260Z,17.04
2018-06-30T05:24:24.503Z,17.03
2018-06-30T05:25:24.747Z,16.93
2018-06-30T05:26:24.987Z,16.86
2018-06-30T05:27:25.232Z,16.93
2018-06-30T05:28:25.474Z,16.96
2018-06-30T05:29:25.716Z,16.88
2018-06-30T05:30:25.960Z,16.86
2018-06-30T05:31:26.203Z,16.82
2018-06-30T05:32:26.452Z,16.70
2018-06-30T05:33:26.761Z,16.82
2018-06-30T05:34:26.933Z,16.81
2018-06-30T05:35:27.176Z,16.85
2018-06-30T05:36:27.418Z,16.85
2018-06-30T05:37:27.666Z,16.79
2018-06-30T05:38:27.935Z,16.79
2018-06-30T05:39:28.175Z,16.81
2018-06-30T05:40:28.414Z,16.88
2018-06-30T05:41:28.659Z,16.88
2018-06-30T05:42:28.900Z,16.96
2018-06-30T05:43:29.144Z,16.89
2018-06-30T05:44:29.419Z,16.88
2018-06-30T05:45:29.652Z,16.94
2018-06-30T05:46:29.897Z,17.06
2018-06-30T05:47:30.140Z,17.06
2018-06-30T05:48:30.383Z,16.91
2018-06-30T05:49:30.627Z,17.07
2018-06-30T05:50:30.869Z,17.03
2018-06-30T05:51:31.114Z,17.03
2018-06-30T05:52:31.354Z,16.96
2018-06-30T05:53:31.601Z,17.04
2018-06-30T05:54:31.840Z,17.21
2018-06-30T05:55:32.084Z,17.04
2018-06-30T05:56:32.326Z,17.15
2018-06-30T05:57:32.571Z,16.94
2018-06-30T05:58:32.817Z,17.08
2018-06-30T05:59:33.060Z,17.07
2018-06-30T06:00:33.298Z,16.91
2018-06-30T06:01:33.544Z,17.03
2018-06-30T06:02:33.788Z,17.03
2018-06-30T06:03:34.032Z,17.12
2018-06-30T06:04:34.275Z,17.16
2018-06-30T06:05:34.518Z,17.16
2018-06-30T06:06:34.760Z,17.14
2018-06-30T06:07:35.005Z,17.14
2018-06-30T06:08:35.247Z,17.14
2018-06-30T06:09:35.561Z,17.21
2018-06-30T06:10:35.732Z,17.21
2018-06-30T06:11:35.975Z,17.22
2018-06-30T06:12:36.223Z,17.28
2018-06-30T06:13:36.483Z,17.30
2018-06-30T06:14:36.710Z,17.34
2018-06-30T06:15:36.949Z,17.34
2018-06-30T06:16:37.192Z,17.36
2018-06-30T06:17:37.434Z,17.55
2018-06-30T06:18:37.679Z,17.72
2018-06-30T06:19:37.923Z,17.87
2018-06-30T06:20:38.166Z,17.79
2018-06-30T06:21:38.411Z,17.77
2018-06-30T06:22:38.652Z,17.79
2018-06-30T06:23:38.899Z,17.87
2018-06-30T06:24:39.141Z,17.99
2018-06-30T06:25:39.384Z,17.87
2018-06-30T06:26:39.627Z,18.03
2018-06-30T06:27:39.868Z,18.15
2018-06-30T06:28:40.114Z,18.37
2018-06-30T06:29:40.355Z,18.47
2018-06-30T06:30:40.600Z,18.39
2018-06-30T06:31:40.848Z,18.55
2018-06-30T06:32:41.166Z,18.62
2018-06-30T06:33:41.330Z,18.76
2018-06-30T06:34:41.573Z,18.87
2018-06-30T06:35:41.817Z,18.76
2018-06-30T06:36:42.062Z,18.54
2018-06-30T06:37:42.307Z,18.50
2018-06-30T06:38:42.551Z,18.54
2018-06-30T06:39:42.796Z,18.65
2018-06-30T06:40:43.038Z,18.51
2018-06-30T06:41:43.326Z,18.50
2018-06-30T06:42:43.528Z,18.54
2018-06-30T06:43:43.772Z,18.54
2018-06-30T06:44:44.016Z,18.45
2018-06-30T06:45:44.262Z,18.51
2018-06-30T06:46:44.506Z,18.54
2018-06-30T06:47:44.748Z,18.44
2018-06-30T06:48:44.998Z,18.35
2018-06-30T06:49:45.241Z,18.20
2018-06-30T06:50:45.485Z,18.32
2018-06-30T06:51:45.730Z,18.27
2018-06-30T06:52:45.975Z,18.51
2018-06-30T06:53:46.216Z,18.54
2018-06-30T06:54:46.460Z,18.66
2018-06-30T06:55:46.703Z,18.67
2018-06-30T06:56:46.948Z,18.82
2018-06-30T06:57:47.191Z,18.94
2018-06-30T06:58:47.438Z,19.23
2018-06-30T06:59:47.679Z,19.36
2018-06-30T07:00:47.924Z,19.71
2018-06-30T07:01:48.167Z,19.80
2018-06-30T07:02:48.412Z,19.68
2018-06-30T07:03:48.656Z,19.77
2018-06-30T07:04:48.902Z,19.81
2018-06-30T07:05:49.155Z,19.78
2018-06-30T07:06:49.393Z,19.87
2018-06-30T07:07:49.638Z,19.77
2018-06-30T07:08:49.882Z,19.80
2018-06-30T07:09:50.125Z,19.76
2018-06-30T07:10:50.369Z,19.73
2018-06-30T07:11:50.614Z,19.95
2018-06-30T07:12:50.856Z,20.05
2018-06-30T07:13:51.099Z,20.23
2018-06-30T07:14:51.349Z,20.13
2018-06-30T07:15:51.867Z,20.13
2018-06-30T07:16:51.948Z,20.26
2018-06-30T07:17:52.134Z,20.39
2018-06-30T07:18:52.377Z,20.21
2018-06-30T07:19:52.621Z,20.39
2018-06-30T07:20:52.866Z,20.41
2018-06-30T07:21:53.111Z,20.42
2018-06-30T07:22:53.357Z,20.39
2018-06-30T07:23:53.603Z,20.42
2018-06-30T07:24:53.847Z,20.79
2018-06-30T07:25:54.093Z,20.98
2018-06-30T07:26:54.344Z,21.32
2018-06-30T07:27:54.579Z,21.82
2018-06-30T07:28:54.822Z,22.72
2018-06-30T07:29:55.067Z,23.57
2018-06-30T07:30:55.313Z,24.27
2018-06-30T07:31:55.602Z,24.20
2018-06-30T07:32:55.847Z,24.46
2018-06-30T07:33:56.202Z,24.81
2018-06-30T07:34:56.451Z,24.71
2018-06-30T07:35:56.584Z,22.95
2018-06-30T07:36:56.832Z,23.42
2018-06-30T07:37:57.079Z,24.40
2018-06-30T07:38:57.328Z,24.46
2018-06-30T07:39:57.573Z,24.12
2018-06-30T07:40:57.826Z,24.10
2018-06-30T07:41:58.069Z,24.60
2018-06-30T07:42:58.317Z,24.49
2018-06-30T07:43:58.567Z,24.52
2018-06-30T07:44:58.806Z,24.39
2018-06-30T07:45:59.056Z,24.68
2018-06-30T07:46:59.302Z,25.18
2018-06-30T07:47:59.551Z,24.47
2018-06-30T07:48:59.798Z,24.64
2018-06-30T07:50:00.126Z,24.58
2018-06-30T07:51:00.291Z,24.99
2018-06-30T07:52:00.541Z,25.39
2018-06-30T07:53:00.789Z,25.15
2018-06-30T07:54:01.037Z,24.90
2018-06-30T07:55:01.287Z,24.39
2018-06-30T07:56:01.540Z,24.37
2018-06-30T07:57:01.785Z,24.30
2018-06-30T07:58:02.032Z,24.39
2018-06-30T07:59:02.282Z,24.30
2018-06-30T08:00:02.532Z,24.47
2018-06-30T08:01:02.781Z,24.50
2018-06-30T08:02:03.095Z,24.60
2018-06-30T08:03:03.280Z,24.16
2018-06-30T08:04:03.525Z,24.27
2018-06-30T08:05:03.775Z,24.24
2018-06-30T08:06:04.025Z,24.34
2018-06-30T08:07:04.273Z,24.42
2018-06-30T08:08:04.522Z,24.95
2018-06-30T08:09:04.772Z,25.17
2018-06-30T08:10:05.024Z,24.16
2018-06-30T08:11:05.272Z,23.69
2018-06-30T08:12:05.522Z,24.08
2018-06-30T08:13:05.770Z,24.13
2018-06-30T08:14:06.021Z,23.94
2018-06-30T08:15:06.271Z,24.20
2018-06-30T08:16:06.522Z,24.58
2018-06-30T08:17:06.770Z,24.05
2018-06-30T08:18:07.022Z,23.17
2018-06-30T08:19:07.271Z,23.13
2018-06-30T08:20:07.525Z,23.46
2018-06-30T08:21:07.812Z,22.90
2018-06-30T08:22:08.026Z,23.02
2018-06-30T08:23:08.275Z,23.43
2018-06-30T08:24:08.528Z,24.57
2018-06-30T08:25:08.773Z,24.77
2018-06-30T08:26:09.023Z,25.03
2018-06-30T08:27:09.276Z,24.27
2018-06-30T08:28:09.522Z,24.62
2018-06-30T08:29:09.773Z,24.43
2018-06-30T08:30:10.021Z,24.67
2018-06-30T08:31:10.270Z,25.14
2018-06-30T08:32:10.521Z,25.45
2018-06-30T08:33:10.772Z,26.06
2018-06-30T08:34:11.021Z,25.55
2018-06-30T08:35:11.268Z,25.43
2018-06-30T08:36:11.569Z,25.77
2018-06-30T08:37:11.772Z,25.57
2018-06-30T08:38:12.021Z,25.06
2018-06-30T08:39:12.272Z,24.61
2018-06-30T08:40:12.524Z,23.19
2018-06-30T08:41:12.776Z,23.36
2018-06-30T08:42:13.028Z,23.36
2018-06-30T08:43:13.279Z,24.50
2018-06-30T08:44:13.528Z,25.51
2018-06-30T08:45:13.780Z,25.72
2018-06-30T08:46:14.032Z,25.76
2018-06-30T08:47:14.280Z,25.70
2018-06-30T08:48:14.531Z,25.87
2018-06-30T08:49:14.781Z,26.20
2018-06-30T08:50:15.032Z,25.72
2018-06-30T08:51:15.374Z,25.42
2018-06-30T08:52:15.536Z,24.60
2018-06-30T08:53:15.786Z,24.99
2018-06-30T08:54:16.038Z,25.73
2018-06-30T08:55:16.349Z,26.28
2018-06-30T08:56:16.536Z,26.89
2018-06-30T08:57:16.785Z,26.51
2018-06-30T08:58:17.039Z,26.36
2018-06-30T08:59:17.289Z,26.18
2018-06-30T09:00:17.544Z,26.43
2018-06-30T09:01:17.793Z,26.40
2018-06-30T09:02:18.104Z,26.06
2018-06-30T09:03:18.349Z,26.33
2018-06-30T09:04:18.583Z,26.62
2018-06-30T09:05:18.830Z,26.95
2018-06-30T09:06:19.104Z,26.63
2018-06-30T09:07:19.330Z,26.72
2018-06-30T09:08:19.582Z,26.88
2018-06-30T09:09:19.833Z,26.91
2018-06-30T09:10:20.084Z,27.13
2018-06-30T09:11:20.338Z,25.25
2018-06-30T09:12:20.648Z,25.10
2018-06-30T09:13:20.844Z,26.21
2018-06-30T09:14:21.095Z,26.52
2018-06-30T09:15:21.350Z,26.28
2018-06-30T09:16:21.604Z,25.47
2018-06-30T09:17:21.854Z,26.05
2018-06-30T09:18:22.106Z,26.55
2018-06-30T09:19:22.357Z,26.92
2018-06-30T09:20:22.608Z,27.32
2018-06-30T09:21:22.858Z,27.72
2018-06-30T09:22:23.110Z,27.57
2018-06-30T09:23:23.361Z,27.90
2018-06-30T09:24:23.613Z,28.31
2018-06-30T09:25:23.866Z,28.02
2018-06-30T09:26:24.119Z,28.41
2018-06-30T09:27:24.367Z,27.93
2018-06-30T09:28:24.629Z,27.62
2018-06-30T09:29:24.883Z,27.31
2018-06-30T09:30:25.133Z,27.69
2018-06-30T09:31:25.387Z,27.44
2018-06-30T09:32:25.641Z,26.84
2018-06-30T09:33:25.893Z,27.29
2018-06-30T09:34:26.145Z,27.67
2018-06-30T09:35:26.396Z,27.97
2018-06-30T09:36:26.650Z,26.89
2018-06-30T09:37:26.904Z,27.14
2018-06-30T09:38:27.159Z,28.18
2018-06-30T09:39:27.413Z,28.61
2018-06-30T09:40:27.662Z,29.12
2018-06-30T09:41:27.923Z,29.42
2018-06-30T09:42:28.168Z,29.21
2018-06-30T09:43:28.421Z,29.21
2018-06-30T09:44:28.727Z,28.89
2018-06-30T09:45:28.926Z,28.73
2018-06-30T09:46:29.180Z,27.84
2018-06-30T09:47:29.436Z,27.81
2018-06-30T09:48:29.690Z,28.07
2018-06-30T09:49:29.937Z,27.79
2018-06-30T09:50:30.189Z,27.85
2018-06-30T09:51:30.443Z,27.60
2018-06-30T09:52:30.701Z,27.41
2018-06-30T09:53:30.943Z,27.09
2018-06-30T09:54:31.195Z,27.39
2018-06-30T09:55:31.449Z,27.18
2018-06-30T09:56:31.703Z,27.63
2018-06-30T09:57:31.954Z,28.09
2018-06-30T09:58:32.213Z,28.02
2018-06-30T09:59:32.462Z,28.29
2018-06-30T10:00:32.734Z,28.39
2018-06-30T10:01:32.970Z,28.49
2018-06-30T10:02:33.219Z,28.15
2018-06-30T10:03:33.474Z,28.02
2018-06-30T10:04:33.729Z,27.55
2018-06-30T10:05:33.980Z,28.02
2018-06-30T10:06:34.232Z,28.43
2018-06-30T10:07:34.490Z,28.41
2018-06-30T10:08:34.737Z,28.36
2018-06-30T10:09:34.990Z,28.67
2018-06-30T10:10:35.245Z,28.85
2018-06-30T10:11:35.496Z,28.89
2018-06-30T10:12:35.811Z,29.21
2018-06-30T10:13:36.003Z,29.23
2018-06-30T10:14:36.256Z,29.51
2018-06-30T10:15:36.512Z,29.48
2018-06-30T10:16:36.760Z,29.41
2018-06-30T10:17:37.049Z,28.74
2018-06-30T10:18:37.270Z,27.06
2018-06-30T10:19:37.523Z,27.84
2018-06-30T10:20:37.777Z,28.83
2018-06-30T10:21:38.030Z,29.16
2018-06-30T10:22:38.285Z,28.96
2018-06-30T10:23:38.535Z,28.93
2018-06-30T10:24:38.789Z,29.09
2018-06-30T10:25:39.046Z,29.43
2018-06-30T10:26:39.296Z,28.95
2018-06-30T10:27:39.552Z,29.15
2018-06-30T10:28:39.805Z,28.80
2018-06-30T10:29:40.061Z,28.25
2018-06-30T10:30:40.315Z,28.61
2018-06-30T10:31:40.568Z,29.16
2018-06-30T10:32:40.819Z,29.41
2018-06-30T10:33:41.073Z,29.94
2018-06-30T10:34:41.326Z,29.85
2018-06-30T10:35:41.580Z,30.23
2018-06-30T10:36:41.835Z,29.79
2018-06-30T10:37:42.092Z,29.33
2018-06-30T10:38:42.344Z,29.23
2018-06-30T10:39:42.600Z,29.02
2018-06-30T10:40:42.855Z,27.69
2018-06-30T10:41:43.112Z,27.29
2018-06-30T10:42:43.363Z,28.49
2018-06-30T10:43:43.619Z,29.39
2018-06-30T10:44:43.873Z,29.21
2018-06-30T10:45:44.139Z,29.70
2018-06-30T10:46:44.380Z,29.63
2018-06-30T10:47:44.632Z,29.26
2018-06-30T10:48:44.888Z,28.44
2018-06-30T10:49:45.143Z,27.99
2018-06-30T10:50:45.398Z,27.21
2018-06-30T10:51:45.654Z,27.81
2018-06-30T10:52:45.908Z,28.43
2018-06-30T10:53:46.163Z,28.51
2018-06-30T10:54:46.417Z,29.11
2018-06-30T10:55:46.671Z,29.33
2018-06-30T10:56:46.925Z,29.19
2018-06-30T10:57:47.180Z,29.53
2018-06-30T10:58:47.432Z,29.60
2018-06-30T10:59:47.688Z,29.76
2018-06-30T11:00:47.943Z,27.66
2018-06-30T11:01:48.196Z,28.56
2018-06-30T11:02:48.449Z,28.92
2018-06-30T11:03:48.707Z,28.03
2018-06-30T11:04:48.968Z,28.55
2018-06-30T11:05:49.248Z,29.15
2018-06-30T11:06:49.468Z,29.55
2018-06-30T11:07:49.721Z,29.74
2018-06-30T11:08:49.974Z,29.85
2018-06-30T11:09:50.228Z,30.46
2018-06-30T11:10:50.483Z,30.83
2018-06-30T11:11:50.737Z,31.46
2018-06-30T11:12:51.048Z,31.75
2018-06-30T11:13:51.245Z,31.65
2018-06-30T11:14:51.500Z,31.34
2018-06-30T11:15:51.755Z,30.10
2018-06-30T11:16:52.010Z,30.27
2018-06-30T11:17:52.262Z,29.80
2018-06-30T11:18:52.516Z,29.68
2018-06-30T11:19:52.770Z,29.92
2018-06-30T11:20:53.027Z,28.55
2018-06-30T11:21:53.284Z,28.56
2018-06-30T11:22:53.537Z,29.05
2018-06-30T11:23:53.795Z,28.81
2018-06-30T11:24:54.046Z,29.30
2018-06-30T11:25:54.300Z,30.08
2018-06-30T11:26:54.559Z,28.67
2018-06-30T11:27:54.813Z,28.73
2018-06-30T11:28:55.070Z,28.78
2018-06-30T11:29:55.326Z,27.67
2018-06-30T11:30:55.579Z,26.33
2018-06-30T11:31:55.836Z,27.13
2018-06-30T11:32:56.088Z,27.92
2018-06-30T11:33:56.343Z,28.46
2018-06-30T11:34:56.595Z,27.29
2018-06-30T11:35:56.851Z,28.49
2018-06-30T11:36:57.106Z,29.36
2018-06-30T11:37:57.367Z,29.78
2018-06-30T11:38:57.610Z,29.90
2018-06-30T11:39:57.863Z,30.04
2018-06-30T11:40:58.202Z,29.94
2018-06-30T11:41:58.372Z,29.74
2018-06-30T11:42:58.627Z,29.30
2018-06-30T11:43:58.880Z,29.60
2018-06-30T11:44:59.131Z,29.55
2018-06-30T11:45:59.385Z,29.83
2018-06-30T11:46:59.641Z,29.78
2018-06-30T11:47:59.895Z,28.07
2018-06-30T11:49:00.151Z,28.62
2018-06-30T11:50:00.404Z,28.31
2018-06-30T11:51:00.659Z,28.29
2018-06-30T11:52:00.917Z,26.54
2018-06-30T11:53:01.169Z,26.99
2018-06-30T11:54:01.427Z,27.54
2018-06-30T11:55:01.679Z,26.40
2018-06-30T11:56:01.936Z,26.50
2018-06-30T11:57:02.188Z,27.36
2018-06-30T11:58:02.441Z,28.74
2018-06-30T11:59:02.694Z,29.51
2018-06-30T12:00:02.949Z,29.36
2018-06-30T12:01:03.206Z,27.44
2018-06-30T12:02:03.490Z,28.18
2018-06-30T12:03:03.712Z,29.41
2018-06-30T12:04:03.964Z,30.15
2018-06-30T12:05:04.216Z,30.69
2018-06-30T12:06:04.474Z,30.84
2018-06-30T12:07:04.723Z,31.21
2018-06-30T12:08:04.978Z,31.35
2018-06-30T12:09:05.229Z,31.44
2018-06-30T12:10:05.484Z,31.44
2018-06-30T12:11:05.736Z,31.23
2018-06-30T12:12:05.995Z,30.82
2018-06-30T12:13:06.248Z,29.92
2018-06-30T12:14:06.500Z,30.01
2018-06-30T12:15:06.755Z,28.52
2018-06-30T12:16:07.006Z,28.37
2018-06-30T12:17:07.260Z,29.30
2018-06-30T12:18:07.513Z,30.17
2018-06-30T12:19:07.767Z,30.51
2018-06-30T12:20:08.019Z,30.49
2018-06-30T12:21:08.273Z,30.13
2018-06-30T12:22:08.528Z,29.65
2018-06-30T12:23:08.781Z,30.15
2018-06-30T12:24:09.073Z,30.69
2018-06-30T12:25:09.327Z,30.72
2018-06-30T12:26:09.578Z,30.91
2018-06-30T12:27:09.833Z,31.04
2018-06-30T12:28:10.088Z,30.49
2018-06-30T12:29:10.342Z,30.47
2018-06-30T12:30:10.596Z,30.75
2018-06-30T12:31:10.853Z,30.72
2018-06-30T12:32:11.107Z,30.00
2018-06-30T12:33:11.356Z,30.23
2018-06-30T12:34:11.630Z,30.01
2018-06-30T12:35:11.889Z,29.80
2018-06-30T12:36:12.142Z,30.27
2018-06-30T12:37:13.093Z,30.82
2018-06-30T12:38:12.728Z,31.07
2018-06-30T12:39:13.011Z,31.02
2018-06-30T12:40:13.235Z,30.42
2018-06-30T12:41:13.486Z,30.94
2018-06-30T12:42:13.741Z,31.07
2018-06-30T12:43:13.997Z,30.72
2018-06-30T12:44:14.250Z,31.06
2018-06-30T12:45:14.503Z,31.14
2018-06-30T12:46:14.758Z,31.12
2018-06-30T12:47:15.013Z,30.82
2018-06-30T12:48:15.269Z,28.48
2018-06-30T12:49:15.521Z,29.39
2018-06-30T12:50:15.776Z,29.79
2018-06-30T12:51:16.030Z,29.92
2018-06-30T12:52:16.281Z,30.46
2018-06-30T12:53:16.540Z,28.48
2018-06-30T12:54:16.850Z,29.33
2018-06-30T12:55:17.052Z,29.33
2018-06-30T12:56:17.309Z,29.28